sensor_id;sensor_type;location;lat;lon;timestamp;P1;durP1;ratioP1;P2;durP2;ratioP2
80675;SDS011;70041;46.088;18.268;2023-09-19T00:00:45;17.85;;;10.77;;
80675;SDS011;70041;46.088;18.268;2023-09-19T00:03:12;18.27;;;10.75;;
80675;SDS011;70041;46.088;18.268;2023-09-19T00:05:37;18.93;;;10.90;;
80675;SDS011;70041;46.088;18.268;2023-09-19T00:08:04;17.00;;;10.68;;
80675;SDS011;70041;46.088;18.268;2023-09-19T00:10:33;17.87;;;11.17;;
80675;SDS011;70041;46.088;18.268;2023-09-19T00:13:04;16.85;;;11.40;;
80675;SDS011;70041;46.088;18.268;2023-09-19T00:15:37;19.98;;;11.23;;
80675;SDS011;70041;46.088;18.268;2023-09-19T00:18:04;17.40;;;11.70;;
80675;SDS011;70041;46.088;18.268;2023-09-19T00:20:37;19.25;;;11.90;;
80675;SDS011;70041;46.088;18.268;2023-09-19T00:23:03;19.40;;;11.13;;
80675;SDS011;70041;46.088;18.268;2023-09-19T00:25:29;19.77;;;11.00;;
80675;SDS011;70041;46.088;18.268;2023-09-19T00:27:55;17.77;;;11.83;;
80675;SDS011;70041;46.088;18.268;2023-09-19T00:30:20;20.02;;;11.90;;
80675;SDS011;70041;46.088;18.268;2023-09-19T00:32:46;18.17;;;11.67;;
80675;SDS011;70041;46.088;18.268;2023-09-19T00:35:13;18.67;;;11.57;;
80675;SDS011;70041;46.088;18.268;2023-09-19T00:37:40;18.98;;;12.02;;
80675;SDS011;70041;46.088;18.268;2023-09-19T00:40:06;17.90;;;11.52;;
80675;SDS011;70041;46.088;18.268;2023-09-19T00:42:37;19.87;;;11.97;;
80675;SDS011;70041;46.088;18.268;2023-09-19T00:45:06;21.00;;;11.80;;
80675;SDS011;70041;46.088;18.268;2023-09-19T00:47:35;20.15;;;11.32;;
80675;SDS011;70041;46.088;18.268;2023-09-19T00:50:02;17.13;;;11.35;;
80675;SDS011;70041;46.088;18.268;2023-09-19T00:52:32;17.25;;;10.75;;
80675;SDS011;70041;46.088;18.268;2023-09-19T00:54:58;19.57;;;11.60;;
80675;SDS011;70041;46.088;18.268;2023-09-19T00:57:25;19.10;;;11.55;;
80675;SDS011;70041;46.088;18.268;2023-09-19T00:59:51;18.60;;;11.68;;
80675;SDS011;70041;46.088;18.268;2023-09-19T01:02:19;19.73;;;11.50;;
80675;SDS011;70041;46.088;18.268;2023-09-19T01:04:47;20.35;;;11.57;;
80675;SDS011;70041;46.088;18.268;2023-09-19T01:07:12;19.60;;;11.30;;
80675;SDS011;70041;46.088;18.268;2023-09-19T01:09:40;16.88;;;11.27;;
80675;SDS011;70041;46.088;18.268;2023-09-19T01:12:06;21.45;;;11.57;;
80675;SDS011;70041;46.088;18.268;2023-09-19T01:19:50;18.90;;;11.25;;
80675;SDS011;70041;46.088;18.268;2023-09-19T01:28:30;18.00;;;11.20;;
80675;SDS011;70041;46.088;18.268;2023-09-19T01:31:19;18.52;;;11.40;;
80675;SDS011;70041;46.088;18.268;2023-09-19T01:36:22;18.45;;;11.48;;
80675;SDS011;70041;46.088;18.268;2023-09-19T01:38:49;18.90;;;10.67;;
80675;SDS011;70041;46.088;18.268;2023-09-19T01:41:16;20.13;;;11.30;;
80675;SDS011;70041;46.088;18.268;2023-09-19T01:43:50;20.35;;;11.88;;
80675;SDS011;70041;46.088;18.268;2023-09-19T01:46:18;21.17;;;11.13;;
80675;SDS011;70041;46.088;18.268;2023-09-19T01:54:40;20.15;;;11.45;;
80675;SDS011;70041;46.088;18.268;2023-09-19T01:57:32;17.27;;;10.43;;
80675;SDS011;70041;46.088;18.268;2023-09-19T02:00:06;20.80;;;11.07;;
80675;SDS011;70041;46.088;18.268;2023-09-19T02:02:34;17.40;;;10.52;;
80675;SDS011;70041;46.088;18.268;2023-09-19T02:05:02;16.95;;;10.98;;
80675;SDS011;70041;46.088;18.268;2023-09-19T02:07:29;17.95;;;11.48;;
80675;SDS011;70041;46.088;18.268;2023-09-19T02:09:56;20.30;;;11.07;;
80675;SDS011;70041;46.088;18.268;2023-09-19T02:12:22;18.97;;;9.97;;
80675;SDS011;70041;46.088;18.268;2023-09-19T02:14:48;18.08;;;10.68;;
80675;SDS011;70041;46.088;18.268;2023-09-19T02:17:13;20.73;;;10.67;;
80675;SDS011;70041;46.088;18.268;2023-09-19T02:19:38;18.17;;;11.13;;
80675;SDS011;70041;46.088;18.268;2023-09-19T02:22:05;19.10;;;10.95;;
80675;SDS011;70041;46.088;18.268;2023-09-19T02:24:32;17.25;;;10.40;;
80675;SDS011;70041;46.088;18.268;2023-09-19T02:26:58;16.90;;;9.83;;
80675;SDS011;70041;46.088;18.268;2023-09-19T02:29:25;20.08;;;10.98;;
80675;SDS011;70041;46.088;18.268;2023-09-19T02:31:52;18.67;;;10.07;;
80675;SDS011;70041;46.088;18.268;2023-09-19T02:34:18;18.25;;;10.02;;
80675;SDS011;70041;46.088;18.268;2023-09-19T02:36:44;20.20;;;10.30;;
80675;SDS011;70041;46.088;18.268;2023-09-19T02:39:10;15.50;;;8.90;;
80675;SDS011;70041;46.088;18.268;2023-09-19T02:41:36;16.73;;;10.00;;
80675;SDS011;70041;46.088;18.268;2023-09-19T02:44:02;17.60;;;9.93;;
80675;SDS011;70041;46.088;18.268;2023-09-19T02:46:27;17.83;;;9.30;;
80675;SDS011;70041;46.088;18.268;2023-09-19T02:48:53;17.47;;;9.63;;
80675;SDS011;70041;46.088;18.268;2023-09-19T02:51:19;19.30;;;9.32;;
80675;SDS011;70041;46.088;18.268;2023-09-19T02:53:45;16.90;;;9.53;;
80675;SDS011;70041;46.088;18.268;2023-09-19T02:56:12;17.52;;;9.75;;
80675;SDS011;70041;46.088;18.268;2023-09-19T02:58:38;16.77;;;9.10;;
80675;SDS011;70041;46.088;18.268;2023-09-19T03:01:07;14.90;;;9.07;;
80675;SDS011;70041;46.088;18.268;2023-09-19T03:03:34;18.55;;;9.65;;
80675;SDS011;70041;46.088;18.268;2023-09-19T03:05:59;17.93;;;9.20;;
80675;SDS011;70041;46.088;18.268;2023-09-19T03:08:29;18.63;;;9.65;;
80675;SDS011;70041;46.088;18.268;2023-09-19T03:10:54;17.30;;;9.33;;
80675;SDS011;70041;46.088;18.268;2023-09-19T03:13:19;17.70;;;9.45;;
80675;SDS011;70041;46.088;18.268;2023-09-19T03:15:45;16.87;;;9.40;;
80675;SDS011;70041;46.088;18.268;2023-09-19T03:18:12;17.83;;;9.57;;
80675;SDS011;70041;46.088;18.268;2023-09-19T03:20:38;18.40;;;9.17;;
80675;SDS011;70041;46.088;18.268;2023-09-19T03:23:04;18.08;;;8.23;;
80675;SDS011;70041;46.088;18.268;2023-09-19T03:25:30;21.13;;;8.70;;
80675;SDS011;70041;46.088;18.268;2023-09-19T03:27:56;17.88;;;9.35;;
80675;SDS011;70041;46.088;18.268;2023-09-19T03:30:23;15.77;;;8.83;;
80675;SDS011;70041;46.088;18.268;2023-09-19T03:32:49;16.88;;;9.60;;
80675;SDS011;70041;46.088;18.268;2023-09-19T03:35:15;16.30;;;9.45;;
80675;SDS011;70041;46.088;18.268;2023-09-19T03:37:41;18.40;;;9.30;;
80675;SDS011;70041;46.088;18.268;2023-09-19T03:40:07;17.40;;;9.60;;
80675;SDS011;70041;46.088;18.268;2023-09-19T03:42:37;16.70;;;9.15;;
80675;SDS011;70041;46.088;18.268;2023-09-19T03:45:04;18.52;;;9.40;;
80675;SDS011;70041;46.088;18.268;2023-09-19T03:47:31;16.65;;;9.35;;
80675;SDS011;70041;46.088;18.268;2023-09-19T03:49:57;17.80;;;9.87;;
80675;SDS011;70041;46.088;18.268;2023-09-19T03:52:22;18.57;;;9.23;;
80675;SDS011;70041;46.088;18.268;2023-09-19T03:54:47;17.23;;;9.37;;
80675;SDS011;70041;46.088;18.268;2023-09-19T03:57:14;17.88;;;9.68;;
80675;SDS011;70041;46.088;18.268;2023-09-19T03:59:42;19.70;;;10.13;;
80675;SDS011;70041;46.088;18.268;2023-09-19T04:02:11;19.13;;;9.73;;
80675;SDS011;70041;46.088;18.268;2023-09-19T04:04:47;20.27;;;10.63;;
80675;SDS011;70041;46.088;18.268;2023-09-19T04:07:12;21.13;;;10.53;;
80675;SDS011;70041;46.088;18.268;2023-09-19T04:09:38;19.83;;;11.07;;
80675;SDS011;70041;46.088;18.268;2023-09-19T04:12:03;17.77;;;10.27;;
80675;SDS011;70041;46.088;18.268;2023-09-19T04:14:29;21.38;;;11.93;;
80675;SDS011;70041;46.088;18.268;2023-09-19T04:16:55;20.87;;;10.87;;
80675;SDS011;70041;46.088;18.268;2023-09-19T04:19:20;17.73;;;10.93;;
80675;SDS011;70041;46.088;18.268;2023-09-19T04:21:47;18.85;;;9.80;;
80675;SDS011;70041;46.088;18.268;2023-09-19T04:24:13;21.43;;;10.17;;
80675;SDS011;70041;46.088;18.268;2023-09-19T04:26:39;15.73;;;9.13;;
80675;SDS011;70041;46.088;18.268;2023-09-19T04:29:04;17.47;;;9.37;;
80675;SDS011;70041;46.088;18.268;2023-09-19T04:31:31;16.48;;;7.97;;
80675;SDS011;70041;46.088;18.268;2023-09-19T04:33:56;18.70;;;9.07;;
80675;SDS011;70041;46.088;18.268;2023-09-19T04:36:24;18.70;;;8.85;;
80675;SDS011;70041;46.088;18.268;2023-09-19T04:38:49;18.87;;;9.60;;
80675;SDS011;70041;46.088;18.268;2023-09-19T04:41:15;17.30;;;9.20;;
80675;SDS011;70041;46.088;18.268;2023-09-19T04:43:40;18.87;;;9.00;;
80675;SDS011;70041;46.088;18.268;2023-09-19T04:46:06;15.77;;;8.80;;
80675;SDS011;70041;46.088;18.268;2023-09-19T04:48:32;19.20;;;9.30;;
80675;SDS011;70041;46.088;18.268;2023-09-19T04:50:59;20.60;;;8.48;;
80675;SDS011;70041;46.088;18.268;2023-09-19T04:53:25;21.45;;;8.52;;
80675;SDS011;70041;46.088;18.268;2023-09-19T04:55:53;17.70;;;8.47;;
80675;SDS011;70041;46.088;18.268;2023-09-19T04:58:20;20.23;;;8.85;;
80675;SDS011;70041;46.088;18.268;2023-09-19T05:00:46;15.73;;;7.87;;
80675;SDS011;70041;46.088;18.268;2023-09-19T05:03:11;18.47;;;7.90;;
80675;SDS011;70041;46.088;18.268;2023-09-19T05:05:37;21.33;;;8.60;;
80675;SDS011;70041;46.088;18.268;2023-09-19T05:08:03;16.80;;;7.97;;
80675;SDS011;70041;46.088;18.268;2023-09-19T05:10:30;16.15;;;7.90;;
80675;SDS011;70041;46.088;18.268;2023-09-19T05:12:57;19.38;;;8.00;;
80675;SDS011;70041;46.088;18.268;2023-09-19T05:15:22;20.03;;;8.40;;
80675;SDS011;70041;46.088;18.268;2023-09-19T05:17:48;18.70;;;8.13;;
80675;SDS011;70041;46.088;18.268;2023-09-19T05:20:19;16.92;;;9.05;;
80675;SDS011;70041;46.088;18.268;2023-09-19T05:23:03;19.13;;;8.68;;
80675;SDS011;70041;46.088;18.268;2023-09-19T05:25:37;15.32;;;8.93;;
80675;SDS011;70041;46.088;18.268;2023-09-19T05:28:08;19.27;;;9.02;;
80675;SDS011;70041;46.088;18.268;2023-09-19T05:30:35;18.83;;;10.07;;
80675;SDS011;70041;46.088;18.268;2023-09-19T05:33:01;19.80;;;9.07;;
80675;SDS011;70041;46.088;18.268;2023-09-19T05:35:29;18.13;;;8.63;;
80675;SDS011;70041;46.088;18.268;2023-09-19T05:37:54;15.70;;;8.83;;
80675;SDS011;70041;46.088;18.268;2023-09-19T05:40:21;16.15;;;8.50;;
80675;SDS011;70041;46.088;18.268;2023-09-19T05:42:46;18.07;;;9.47;;
80675;SDS011;70041;46.088;18.268;2023-09-19T05:45:12;21.47;;;10.07;;
80675;SDS011;70041;46.088;18.268;2023-09-19T05:47:42;20.08;;;9.25;;
80675;SDS011;70041;46.088;18.268;2023-09-19T05:50:10;17.90;;;8.82;;
80675;SDS011;70041;46.088;18.268;2023-09-19T05:52:37;19.70;;;9.50;;
80675;SDS011;70041;46.088;18.268;2023-09-19T05:55:05;18.55;;;8.70;;
80675;SDS011;70041;46.088;18.268;2023-09-19T05:57:32;19.70;;;9.33;;
80675;SDS011;70041;46.088;18.268;2023-09-19T06:00:00;21.40;;;8.90;;
80675;SDS011;70041;46.088;18.268;2023-09-19T06:02:26;22.17;;;8.70;;
80675;SDS011;70041;46.088;18.268;2023-09-19T06:04:54;21.83;;;9.00;;
80675;SDS011;70041;46.088;18.268;2023-09-19T06:07:20;23.25;;;9.23;;
80675;SDS011;70041;46.088;18.268;2023-09-19T06:09:51;21.50;;;8.98;;
80675;SDS011;70041;46.088;18.268;2023-09-19T06:12:18;18.02;;;8.48;;
80675;SDS011;70041;46.088;18.268;2023-09-19T06:14:44;19.70;;;9.57;;
80675;SDS011;70041;46.088;18.268;2023-09-19T06:17:09;18.63;;;9.80;;
80675;SDS011;70041;46.088;18.268;2023-09-19T06:19:35;22.97;;;10.07;;
80675;SDS011;70041;46.088;18.268;2023-09-19T06:22:01;20.30;;;9.95;;
80675;SDS011;70041;46.088;18.268;2023-09-19T06:24:27;18.50;;;10.50;;
80675;SDS011;70041;46.088;18.268;2023-09-19T06:26:53;19.15;;;7.32;;
80675;SDS011;70041;46.088;18.268;2023-09-19T06:29:19;20.23;;;5.80;;
80675;SDS011;70041;46.088;18.268;2023-09-19T06:31:45;16.00;;;5.30;;
80675;SDS011;70041;46.088;18.268;2023-09-19T06:34:12;16.10;;;5.68;;
80675;SDS011;70041;46.088;18.268;2023-09-19T06:36:39;13.65;;;4.78;;
80675;SDS011;70041;46.088;18.268;2023-09-19T06:39:06;13.10;;;4.85;;
80675;SDS011;70041;46.088;18.268;2023-09-19T06:41:31;11.00;;;4.17;;
80675;SDS011;70041;46.088;18.268;2023-09-19T06:43:57;11.10;;;3.80;;
80675;SDS011;70041;46.088;18.268;2023-09-19T06:46:22;9.43;;;3.57;;
80675;SDS011;70041;46.088;18.268;2023-09-19T06:48:48;10.53;;;3.40;;
80675;SDS011;70041;46.088;18.268;2023-09-19T06:51:14;9.57;;;2.83;;
80675;SDS011;70041;46.088;18.268;2023-09-19T06:53:41;8.00;;;2.63;;
80675;SDS011;70041;46.088;18.268;2023-09-19T06:56:07;7.17;;;2.30;;
80675;SDS011;70041;46.088;18.268;2023-09-19T06:58:32;7.70;;;2.13;;
80675;SDS011;70041;46.088;18.268;2023-09-19T07:00:57;5.50;;;1.77;;
80675;SDS011;70041;46.088;18.268;2023-09-19T07:03:23;6.40;;;1.77;;
80675;SDS011;70041;46.088;18.268;2023-09-19T07:05:51;6.43;;;1.80;;
80675;SDS011;70041;46.088;18.268;2023-09-19T07:08:17;6.30;;;1.70;;
80675;SDS011;70041;46.088;18.268;2023-09-19T07:10:43;3.08;;;1.08;;
80675;SDS011;70041;46.088;18.268;2023-09-19T07:13:13;5.07;;;1.15;;
80675;SDS011;70041;46.088;18.268;2023-09-19T07:15:41;3.03;;;1.20;;
80675;SDS011;70041;46.088;18.268;2023-09-19T07:18:12;3.67;;;1.10;;
80675;SDS011;70041;46.088;18.268;2023-09-19T07:20:41;3.80;;;1.00;;
80675;SDS011;70041;46.088;18.268;2023-09-19T07:23:14;2.65;;;0.93;;
80675;SDS011;70041;46.088;18.268;2023-09-19T07:25:41;3.97;;;1.10;;
80675;SDS011;70041;46.088;18.268;2023-09-19T07:28:06;4.17;;;1.00;;
80675;SDS011;70041;46.088;18.268;2023-09-19T07:30:32;3.03;;;1.00;;
80675;SDS011;70041;46.088;18.268;2023-09-19T07:33:02;4.88;;;1.10;;
80675;SDS011;70041;46.088;18.268;2023-09-19T07:35:27;5.82;;;1.02;;
80675;SDS011;70041;46.088;18.268;2023-09-19T07:37:53;4.00;;;0.97;;
80675;SDS011;70041;46.088;18.268;2023-09-19T07:40:18;3.00;;;1.00;;
80675;SDS011;70041;46.088;18.268;2023-09-19T07:42:45;2.65;;;0.98;;
80675;SDS011;70041;46.088;18.268;2023-09-19T07:45:12;4.90;;;1.00;;
80675;SDS011;70041;46.088;18.268;2023-09-19T07:47:44;2.95;;;0.90;;
80675;SDS011;70041;46.088;18.268;2023-09-19T07:50:12;3.97;;;1.07;;
80675;SDS011;70041;46.088;18.268;2023-09-19T07:52:38;4.90;;;0.90;;
80675;SDS011;70041;46.088;18.268;2023-09-19T07:55:06;3.13;;;0.80;;
80675;SDS011;70041;46.088;18.268;2023-09-19T07:57:36;3.03;;;0.95;;
80675;SDS011;70041;46.088;18.268;2023-09-19T08:00:02;2.63;;;0.90;;
80675;SDS011;70041;46.088;18.268;2023-09-19T08:02:35;3.53;;;1.00;;
80675;SDS011;70041;46.088;18.268;2023-09-19T08:05:03;3.35;;;1.00;;
80675;SDS011;70041;46.088;18.268;2023-09-19T08:07:32;4.38;;;0.98;;
80675;SDS011;70041;46.088;18.268;2023-09-19T08:09:57;3.83;;;1.20;;
80675;SDS011;70041;46.088;18.268;2023-09-19T08:12:23;3.10;;;0.90;;
80675;SDS011;70041;46.088;18.268;2023-09-19T08:14:49;6.40;;;1.33;;
80675;SDS011;70041;46.088;18.268;2023-09-19T08:17:15;4.72;;;1.00;;
80675;SDS011;70041;46.088;18.268;2023-09-19T08:19:41;4.10;;;1.03;;
80675;SDS011;70041;46.088;18.268;2023-09-19T08:22:07;3.92;;;1.20;;
80675;SDS011;70041;46.088;18.268;2023-09-19T08:24:35;5.00;;;1.20;;
80675;SDS011;70041;46.088;18.268;2023-09-19T08:27:01;4.77;;;1.13;;
80675;SDS011;70041;46.088;18.268;2023-09-19T08:29:29;5.13;;;1.10;;
80675;SDS011;70041;46.088;18.268;2023-09-19T08:31:58;4.10;;;1.23;;
80675;SDS011;70041;46.088;18.268;2023-09-19T08:34:24;3.55;;;1.10;;
80675;SDS011;70041;46.088;18.268;2023-09-19T08:36:50;4.17;;;1.20;;
80675;SDS011;70041;46.088;18.268;2023-09-19T08:39:18;4.30;;;1.08;;
80675;SDS011;70041;46.088;18.268;2023-09-19T08:41:44;4.13;;;1.42;;
80675;SDS011;70041;46.088;18.268;2023-09-19T08:44:10;4.07;;;1.00;;
80675;SDS011;70041;46.088;18.268;2023-09-19T08:46:35;3.90;;;1.15;;
80675;SDS011;70041;46.088;18.268;2023-09-19T08:49:08;3.50;;;1.00;;
80675;SDS011;70041;46.088;18.268;2023-09-19T08:52:01;3.43;;;1.10;;
80675;SDS011;70041;46.088;18.268;2023-09-19T08:54:35;3.92;;;1.20;;
80675;SDS011;70041;46.088;18.268;2023-09-19T08:57:06;4.97;;;1.20;;
80675;SDS011;70041;46.088;18.268;2023-09-19T08:59:46;4.30;;;1.00;;
80675;SDS011;70041;46.088;18.268;2023-09-19T09:02:14;5.22;;;1.35;;
80675;SDS011;70041;46.088;18.268;2023-09-19T09:04:40;3.37;;;1.00;;
80675;SDS011;70041;46.088;18.268;2023-09-19T09:07:12;3.13;;;1.10;;
80675;SDS011;70041;46.088;18.268;2023-09-19T09:09:38;5.22;;;1.05;;
80675;SDS011;70041;46.088;18.268;2023-09-19T09:12:12;4.70;;;0.85;;
80675;SDS011;70041;46.088;18.268;2023-09-19T09:14:47;4.57;;;1.23;;
80675;SDS011;70041;46.088;18.268;2023-09-19T09:17:14;4.87;;;1.30;;
80675;SDS011;70041;46.088;18.268;2023-09-19T09:19:41;5.47;;;1.13;;
80675;SDS011;70041;46.088;18.268;2023-09-19T09:22:08;5.43;;;1.17;;
80675;SDS011;70041;46.088;18.268;2023-09-19T09:24:34;4.50;;;1.20;;
80675;SDS011;70041;46.088;18.268;2023-09-19T09:27:03;4.20;;;1.20;;
80675;SDS011;70041;46.088;18.268;2023-09-19T09:29:42;3.03;;;0.90;;
80675;SDS011;70041;46.088;18.268;2023-09-19T09:32:23;3.65;;;1.20;;
80675;SDS011;70041;46.088;18.268;2023-09-19T09:34:57;2.60;;;0.90;;
80675;SDS011;70041;46.088;18.268;2023-09-19T09:37:25;3.80;;;1.10;;
80675;SDS011;70041;46.088;18.268;2023-09-19T09:39:56;3.78;;;1.10;;
80675;SDS011;70041;46.088;18.268;2023-09-19T09:42:42;3.57;;;1.17;;
80675;SDS011;70041;46.088;18.268;2023-09-19T09:45:12;5.03;;;1.30;;
80675;SDS011;70041;46.088;18.268;2023-09-19T09:47:53;5.53;;;1.20;;
80675;SDS011;70041;46.088;18.268;2023-09-19T09:50:32;3.03;;;1.02;;
80675;SDS011;70041;46.088;18.268;2023-09-19T09:53:05;5.68;;;1.30;;
80675;SDS011;70041;46.088;18.268;2023-09-19T09:58:52;4.15;;;1.10;;
80675;SDS011;70041;46.088;18.268;2023-09-19T10:01:19;3.47;;;1.00;;
80675;SDS011;70041;46.088;18.268;2023-09-19T10:03:46;5.38;;;1.20;;
80675;SDS011;70041;46.088;18.268;2023-09-19T10:06:16;6.18;;;1.48;;
80675;SDS011;70041;46.088;18.268;2023-09-19T10:09:01;3.77;;;1.37;;
80675;SDS011;70041;46.088;18.268;2023-09-19T10:11:47;4.75;;;1.10;;
80675;SDS011;70041;46.088;18.268;2023-09-19T10:14:19;2.88;;;1.10;;
80675;SDS011;70041;46.088;18.268;2023-09-19T10:16:49;3.72;;;1.13;;
80675;SDS011;70041;46.088;18.268;2023-09-19T10:19:15;6.70;;;1.47;;
80675;SDS011;70041;46.088;18.268;2023-09-19T10:21:48;4.28;;;1.27;;
80675;SDS011;70041;46.088;18.268;2023-09-19T10:24:15;4.65;;;1.08;;
80675;SDS011;70041;46.088;18.268;2023-09-19T10:26:42;6.85;;;1.50;;
80675;SDS011;70041;46.088;18.268;2023-09-19T10:29:10;5.50;;;1.38;;
80675;SDS011;70041;46.088;18.268;2023-09-19T10:31:39;4.50;;;1.30;;
80675;SDS011;70041;46.088;18.268;2023-09-19T10:34:06;5.60;;;1.55;;
80675;SDS011;70041;46.088;18.268;2023-09-19T10:36:35;4.22;;;1.20;;
80675;SDS011;70041;46.088;18.268;2023-09-19T10:39:03;3.47;;;1.02;;
80675;SDS011;70041;46.088;18.268;2023-09-19T10:41:32;3.90;;;1.08;;
80675;SDS011;70041;46.088;18.268;2023-09-19T10:44:02;3.53;;;1.10;;
80675;SDS011;70041;46.088;18.268;2023-09-19T10:46:29;3.08;;;0.93;;
80675;SDS011;70041;46.088;18.268;2023-09-19T10:48:58;4.05;;;1.10;;
80675;SDS011;70041;46.088;18.268;2023-09-19T10:51:25;4.88;;;1.10;;
80675;SDS011;70041;46.088;18.268;2023-09-19T10:56:42;2.57;;;0.80;;
80675;SDS011;70041;46.088;18.268;2023-09-19T10:59:14;4.15;;;1.00;;
80675;SDS011;70041;46.088;18.268;2023-09-19T11:01:53;3.55;;;1.15;;
80675;SDS011;70041;46.088;18.268;2023-09-19T11:04:30;4.13;;;1.10;;
80675;SDS011;70041;46.088;18.268;2023-09-19T11:07:07;3.95;;;1.27;;
80675;SDS011;70041;46.088;18.268;2023-09-19T11:09:45;3.90;;;1.03;;
80675;SDS011;70041;46.088;18.268;2023-09-19T11:14:58;3.10;;;1.00;;
80675;SDS011;70041;46.088;18.268;2023-09-19T11:17:37;4.10;;;1.10;;
80675;SDS011;70041;46.088;18.268;2023-09-19T11:30:31;4.07;;;1.15;;
80675;SDS011;70041;46.088;18.268;2023-09-19T11:49:17;4.63;;;1.20;;
80675;SDS011;70041;46.088;18.268;2023-09-19T11:51:50;4.43;;;1.23;;
80675;SDS011;70041;46.088;18.268;2023-09-19T11:54:16;4.80;;;1.13;;
80675;SDS011;70041;46.088;18.268;2023-09-19T11:56:50;3.97;;;1.15;;
80675;SDS011;70041;46.088;18.268;2023-09-19T11:59:23;3.95;;;1.10;;
80675;SDS011;70041;46.088;18.268;2023-09-19T12:01:53;3.83;;;1.00;;
80675;SDS011;70041;46.088;18.268;2023-09-19T12:07:07;3.70;;;1.08;;
80675;SDS011;70041;46.088;18.268;2023-09-19T12:09:47;3.50;;;1.10;;
80675;SDS011;70041;46.088;18.268;2023-09-19T12:12:25;3.92;;;1.20;;
80675;SDS011;70041;46.088;18.268;2023-09-19T12:14:55;4.43;;;1.30;;
80675;SDS011;70041;46.088;18.268;2023-09-19T12:17:23;4.90;;;1.30;;
80675;SDS011;70041;46.088;18.268;2023-09-19T12:19:56;5.40;;;1.48;;
80675;SDS011;70041;46.088;18.268;2023-09-19T12:22:21;4.07;;;1.20;;
80675;SDS011;70041;46.088;18.268;2023-09-19T12:24:47;4.20;;;1.30;;
80675;SDS011;70041;46.088;18.268;2023-09-19T12:27:13;3.88;;;1.08;;
80675;SDS011;70041;46.088;18.268;2023-09-19T12:29:43;3.88;;;1.10;;
80675;SDS011;70041;46.088;18.268;2023-09-19T12:32:09;2.93;;;1.00;;
80675;SDS011;70041;46.088;18.268;2023-09-19T12:34:35;3.60;;;1.20;;
80675;SDS011;70041;46.088;18.268;2023-09-19T12:37:13;4.40;;;1.30;;
80675;SDS011;70041;46.088;18.268;2023-09-19T12:40:09;3.85;;;1.30;;
80675;SDS011;70041;46.088;18.268;2023-09-19T12:42:47;3.17;;;1.08;;
80675;SDS011;70041;46.088;18.268;2023-09-19T12:45:14;3.27;;;1.10;;
80675;SDS011;70041;46.088;18.268;2023-09-19T12:51:04;2.97;;;1.13;;
80675;SDS011;70041;46.088;18.268;2023-09-19T12:53:39;4.30;;;1.20;;
80675;SDS011;70041;46.088;18.268;2023-09-19T12:56:07;4.55;;;1.10;;
80675;SDS011;70041;46.088;18.268;2023-09-19T12:58:47;5.47;;;1.40;;
80675;SDS011;70041;46.088;18.268;2023-09-19T13:01:14;3.88;;;1.17;;
80675;SDS011;70041;46.088;18.268;2023-09-19T13:03:41;3.70;;;1.00;;
80675;SDS011;70041;46.088;18.268;2023-09-19T13:06:07;3.25;;;1.08;;
80675;SDS011;70041;46.088;18.268;2023-09-19T13:08:34;3.47;;;1.00;;
80675;SDS011;70041;46.088;18.268;2023-09-19T13:13:32;4.05;;;1.10;;
80675;SDS011;70041;46.088;18.268;2023-09-19T13:15:58;4.03;;;1.20;;
80675;SDS011;70041;46.088;18.268;2023-09-19T13:18:26;5.78;;;1.10;;
80675;SDS011;70041;46.088;18.268;2023-09-19T13:21:11;4.00;;;1.30;;
80675;SDS011;70041;46.088;18.268;2023-09-19T13:23:47;4.22;;;1.33;;
80675;SDS011;70041;46.088;18.268;2023-09-19T13:26:13;4.65;;;1.40;;
80675;SDS011;70041;46.088;18.268;2023-09-19T13:28:40;2.63;;;0.93;;
80675;SDS011;70041;46.088;18.268;2023-09-19T13:31:05;5.07;;;1.20;;
80675;SDS011;70041;46.088;18.268;2023-09-19T13:33:31;3.43;;;1.20;;
80675;SDS011;70041;46.088;18.268;2023-09-19T13:35:58;4.25;;;1.00;;
80675;SDS011;70041;46.088;18.268;2023-09-19T13:38:24;4.00;;;1.10;;
80675;SDS011;70041;46.088;18.268;2023-09-19T13:40:49;5.87;;;1.30;;
80675;SDS011;70041;46.088;18.268;2023-09-19T13:43:17;4.85;;;1.30;;
80675;SDS011;70041;46.088;18.268;2023-09-19T13:45:43;4.93;;;1.20;;
80675;SDS011;70041;46.088;18.268;2023-09-19T13:48:08;6.13;;;1.50;;
80675;SDS011;70041;46.088;18.268;2023-09-19T13:50:40;4.70;;;1.30;;
80675;SDS011;70041;46.088;18.268;2023-09-19T13:53:08;3.47;;;1.20;;
80675;SDS011;70041;46.088;18.268;2023-09-19T13:55:34;3.50;;;1.20;;
80675;SDS011;70041;46.088;18.268;2023-09-19T13:58:00;5.83;;;1.23;;
80675;SDS011;70041;46.088;18.268;2023-09-19T14:00:25;4.78;;;1.40;;
80675;SDS011;70041;46.088;18.268;2023-09-19T14:02:51;3.97;;;1.23;;
80675;SDS011;70041;46.088;18.268;2023-09-19T14:05:17;4.32;;;1.45;;
80675;SDS011;70041;46.088;18.268;2023-09-19T14:07:42;6.33;;;1.33;;
80675;SDS011;70041;46.088;18.268;2023-09-19T14:10:09;3.75;;;1.30;;
80675;SDS011;70041;46.088;18.268;2023-09-19T14:12:38;6.70;;;1.20;;
80675;SDS011;70041;46.088;18.268;2023-09-19T14:15:08;3.60;;;1.07;;
80675;SDS011;70041;46.088;18.268;2023-09-19T14:17:34;3.72;;;1.25;;
80675;SDS011;70041;46.088;18.268;2023-09-19T14:19:59;4.20;;;1.30;;
80675;SDS011;70041;46.088;18.268;2023-09-19T14:22:24;4.10;;;1.40;;
80675;SDS011;70041;46.088;18.268;2023-09-19T14:24:50;3.40;;;1.30;;
80675;SDS011;70041;46.088;18.268;2023-09-19T14:27:15;5.83;;;1.50;;
80675;SDS011;70041;46.088;18.268;2023-09-19T14:29:42;4.33;;;1.70;;
80675;SDS011;70041;46.088;18.268;2023-09-19T14:32:07;5.03;;;1.50;;
80675;SDS011;70041;46.088;18.268;2023-09-19T14:34:32;4.23;;;1.30;;
80675;SDS011;70041;46.088;18.268;2023-09-19T14:36:58;5.40;;;1.53;;
80675;SDS011;70041;46.088;18.268;2023-09-19T14:39:24;2.90;;;1.17;;
80675;SDS011;70041;46.088;18.268;2023-09-19T14:41:50;4.35;;;1.00;;
80675;SDS011;70041;46.088;18.268;2023-09-19T14:44:15;4.00;;;1.17;;
80675;SDS011;70041;46.088;18.268;2023-09-19T14:46:41;4.45;;;1.42;;
80675;SDS011;70041;46.088;18.268;2023-09-19T14:49:09;5.50;;;1.25;;
80675;SDS011;70041;46.088;18.268;2023-09-19T14:51:35;4.20;;;1.13;;
80675;SDS011;70041;46.088;18.268;2023-09-19T14:54:02;3.88;;;1.10;;
80675;SDS011;70041;46.088;18.268;2023-09-19T14:56:28;4.57;;;1.30;;
80675;SDS011;70041;46.088;18.268;2023-09-19T14:58:56;3.78;;;1.10;;
80675;SDS011;70041;46.088;18.268;2023-09-19T15:01:21;5.23;;;1.40;;
80675;SDS011;70041;46.088;18.268;2023-09-19T15:03:47;6.72;;;1.30;;
80675;SDS011;70041;46.088;18.268;2023-09-19T15:06:14;4.27;;;1.10;;
80675;SDS011;70041;46.088;18.268;2023-09-19T15:08:42;4.07;;;1.10;;
80675;SDS011;70041;46.088;18.268;2023-09-19T15:11:12;5.13;;;1.23;;
80675;SDS011;70041;46.088;18.268;2023-09-19T15:13:45;3.85;;;1.15;;
80675;SDS011;70041;46.088;18.268;2023-09-19T15:16:11;3.67;;;1.40;;
80675;SDS011;70041;46.088;18.268;2023-09-19T15:18:38;4.97;;;1.17;;
80675;SDS011;70041;46.088;18.268;2023-09-19T15:21:07;3.95;;;1.15;;
80675;SDS011;70041;46.088;18.268;2023-09-19T15:23:34;4.25;;;1.30;;
80675;SDS011;70041;46.088;18.268;2023-09-19T15:26:00;3.10;;;1.00;;
80675;SDS011;70041;46.088;18.268;2023-09-19T15:28:26;4.50;;;0.90;;
80675;SDS011;70041;46.088;18.268;2023-09-19T15:31:00;3.83;;;1.23;;
80675;SDS011;70041;46.088;18.268;2023-09-19T15:33:27;5.85;;;1.20;;
80675;SDS011;70041;46.088;18.268;2023-09-19T15:36:00;4.53;;;1.20;;